Chipping Norton, United Kingdom
Current Conditions -  °F | °C
As of 10:20 PM on Monday 26 Jan 2015 (Local Time) from EGTK Reporting Station
Clear Clear  
Wind Chill: 34°   Ceiling: Unl
Heat Index: 39°   Visibility: 6mi
Dew Point: 36°   Wind: 7mph
Humidity: 87%   Direction: 280°W
Pressure: 30.36"   Gusts: NA
Location:  51.94°N, 1.55°W
Report Text: EGTK 262220Z 28006KT CAVOK 04/02 Q1028
Loading
Personal Weather Stations






























Interactive Weather Map New forecast layout! Learn more

10-Day Weather Forecast

Advertisements
Track Severe Weather on mobile